sensor_id;sensor_type;location;lat;lon;timestamp;temperature;humidity
6954;DHT22;3516;47.980;8.808;2023-06-22T03:57:16;17.60;99.90
6954;DHT22;3516;47.980;8.808;2023-06-22T03:59:42;17.80;99.90
6954;DHT22;3516;47.980;8.808;2023-06-22T04:02:09;17.90;99.90
6954;DHT22;3516;47.980;8.808;2023-06-22T04:04:36;18.10;99.90
6954;DHT22;3516;47.980;8.808;2023-06-22T04:07:04;18.30;99.90
6954;DHT22;3516;47.980;8.808;2023-06-22T04:09:31;18.40;99.90
6954;DHT22;3516;47.980;8.808;2023-06-22T04:11:57;18.60;99.90
6954;DHT22;3516;47.980;8.808;2023-06-22T04:14:26;18.80;99.90
6954;DHT22;3516;47.980;8.808;2023-06-22T04:16:52;19.10;99.90
6954;DHT22;3516;47.980;8.808;2023-06-22T04:19:19;19.40;99.90
6954;DHT22;3516;47.980;8.808;2023-06-22T04:21:46;19.70;99.90
6954;DHT22;3516;47.980;8.808;2023-06-22T04:24:14;19.90;99.90
6954;DHT22;3516;47.980;8.808;2023-06-22T04:26:40;20.30;99.90
6954;DHT22;3516;47.980;8.808;2023-06-22T04:29:10;20.60;99.90
6954;DHT22;3516;47.980;8.808;2023-06-22T04:31:39;21.10;99.90
6954;DHT22;3516;47.980;8.808;2023-06-22T04:34:07;21.50;99.90
6954;DHT22;3516;47.980;8.808;2023-06-22T04:36:35;21.90;99.90
6954;DHT22;3516;47.980;8.808;2023-06-22T04:39:05;22.40;99.90
6954;DHT22;3516;47.980;8.808;2023-06-22T04:41:32;22.70;99.90
6954;DHT22;3516;47.980;8.808;2023-06-22T04:44:08;23.10;99.90
6954;DHT22;3516;47.980;8.808;2023-06-22T04:46:35;23.50;99.90
6954;DHT22;3516;47.980;8.808;2023-06-22T04:49:05;23.90;99.90
6954;DHT22;3516;47.980;8.808;2023-06-22T04:51:37;24.20;99.90
6954;DHT22;3516;47.980;8.808;2023-06-22T04:54:04;24.50;99.90
6954;DHT22;3516;47.980;8.808;2023-06-22T04:56:31;24.70;99.90
6954;DHT22;3516;47.980;8.808;2023-06-22T04:58:58;25.10;99.90
6954;DHT22;3516;47.980;8.808;2023-06-22T05:01:25;25.60;99.90
6954;DHT22;3516;47.980;8.808;2023-06-22T10:48:27;31.90;99.90
6954;DHT22;3516;47.980;8.808;2023-06-22T10:50:54;31.90;99.90
6954;DHT22;3516;47.980;8.808;2023-06-22T10:53:20;31.90;99.90
6954;DHT22;3516;47.980;8.808;2023-06-22T10:55:48;31.70;99.90
6954;DHT22;3516;47.980;8.808;2023-06-22T10:58:15;31.50;99.90
6954;DHT22;3516;47.980;8.808;2023-06-22T11:00:42;31.40;99.90
6954;DHT22;3516;47.980;8.808;2023-06-22T11:03:09;31.10;99.90
6954;DHT22;3516;47.980;8.808;2023-06-22T11:05:38;30.90;99.90
6954;DHT22;3516;47.980;8.808;2023-06-22T11:08:05;30.90;99.90
6954;DHT22;3516;47.980;8.808;2023-06-22T11:10:32;31.10;99.90
6954;DHT22;3516;47.980;8.808;2023-06-22T11:13:00;31.20;99.90
6954;DHT22;3516;47.980;8.808;2023-06-22T11:15:28;31.50;99.90
6954;DHT22;3516;47.980;8.808;2023-06-22T11:17:55;31.70;99.90
6954;DHT22;3516;47.980;8.808;2023-06-22T11:20:22;31.90;99.90
6954;DHT22;3516;47.980;8.808;2023-06-22T11:22:50;32.00;99.90
6954;DHT22;3516;47.980;8.808;2023-06-22T11:25:17;31.90;99.90
6954;DHT22;3516;47.980;8.808;2023-06-22T11:27:45;31.70;99.90
6954;DHT22;3516;47.980;8.808;2023-06-22T11:30:12;31.80;99.90
6954;DHT22;3516;47.980;8.808;2023-06-22T11:32:38;31.80;99.90
6954;DHT22;3516;47.980;8.808;2023-06-22T11:35:05;31.70;99.90
6954;DHT22;3516;47.980;8.808;2023-06-22T11:37:32;31.80;99.90
6954;DHT22;3516;47.980;8.808;2023-06-22T11:40:00;31.80;99.90
6954;DHT22;3516;47.980;8.808;2023-06-22T11:42:30;31.70;99.90
6954;DHT22;3516;47.980;8.808;2023-06-22T11:44:57;31.50;99.90
6954;DHT22;3516;47.980;8.808;2023-06-22T11:47:24;31.40;99.90
6954;DHT22;3516;47.980;8.808;2023-06-22T11:49:50;31.30;99.90
6954;DHT22;3516;47.980;8.808;2023-06-22T11:52:17;31.10;99.90
6954;DHT22;3516;47.980;8.808;2023-06-22T11:54:44;30.90;99.90
6954;DHT22;3516;47.980;8.808;2023-06-22T11:57:13;30.60;99.90
6954;DHT22;3516;47.980;8.808;2023-06-22T11:59:40;30.40;99.90
6954;DHT22;3516;47.980;8.808;2023-06-22T12:02:06;30.20;99.90
6954;DHT22;3516;47.980;8.808;2023-06-22T12:04:35;30.00;99.90
6954;DHT22;3516;47.980;8.808;2023-06-22T12:07:02;29.90;99.90
6954;DHT22;3516;47.980;8.808;2023-06-22T12:09:28;29.70;99.90
6954;DHT22;3516;47.980;8.808;2023-06-22T12:11:55;29.60;99.90
6954;DHT22;3516;47.980;8.808;2023-06-22T12:14:23;29.60;99.90
6954;DHT22;3516;47.980;8.808;2023-06-22T12:16:50;29.50;99.90
6954;DHT22;3516;47.980;8.808;2023-06-22T12:19:16;29.40;99.90
6954;DHT22;3516;47.980;8.808;2023-06-22T12:21:43;29.30;99.90
6954;DHT22;3516;47.980;8.808;2023-06-22T12:24:11;29.30;99.90
6954;DHT22;3516;47.980;8.808;2023-06-22T12:26:38;29.40;99.90
6954;DHT22;3516;47.980;8.808;2023-06-22T12:29:04;29.60;99.90
6954;DHT22;3516;47.980;8.808;2023-06-22T12:31:32;29.80;99.90
6954;DHT22;3516;47.980;8.808;2023-06-22T12:33:59;30.10;99.90
6954;DHT22;3516;47.980;8.808;2023-06-22T12:36:26;30.30;99.90
6954;DHT22;3516;47.980;8.808;2023-06-22T12:38:53;30.50;99.90
6954;DHT22;3516;47.980;8.808;2023-06-22T12:41:19;30.70;99.90
6954;DHT22;3516;47.980;8.808;2023-06-22T12:43:46;30.80;99.90
6954;DHT22;3516;47.980;8.808;2023-06-22T12:46:13;31.10;99.90
6954;DHT22;3516;47.980;8.808;2023-06-22T12:48:41;31.40;99.90
6954;DHT22;3516;47.980;8.808;2023-06-22T12:51:09;31.60;99.90
6954;DHT22;3516;47.980;8.808;2023-06-22T12:53:36;31.80;99.90
6954;DHT22;3516;47.980;8.808;2023-06-22T12:56:03;31.70;99.90
6954;DHT22;3516;47.980;8.808;2023-06-22T12:58:29;31.40;99.90
6954;DHT22;3516;47.980;8.808;2023-06-22T13:00:56;31.20;99.90
6954;DHT22;3516;47.980;8.808;2023-06-22T13:03:23;30.90;99.90
6954;DHT22;3516;47.980;8.808;2023-06-22T13:05:53;30.90;99.90
6954;DHT22;3516;47.980;8.808;2023-06-22T13:08:20;30.80;99.90
6954;DHT22;3516;47.980;8.808;2023-06-22T13:10:47;30.80;99.90
6954;DHT22;3516;47.980;8.808;2023-06-22T13:13:14;31.00;99.90
6954;DHT22;3516;47.980;8.808;2023-06-22T13:15:41;31.20;99.90
6954;DHT22;3516;47.980;8.808;2023-06-22T13:18:07;31.20;99.90
6954;DHT22;3516;47.980;8.808;2023-06-22T13:20:34;31.30;99.90
6954;DHT22;3516;47.980;8.808;2023-06-22T13:23:02;31.30;99.90
6954;DHT22;3516;47.980;8.808;2023-06-22T13:25:29;31.20;99.90
6954;DHT22;3516;47.980;8.808;2023-06-22T13:27:56;31.10;99.90
6954;DHT22;3516;47.980;8.808;2023-06-22T13:30:22;30.90;99.90
6954;DHT22;3516;47.980;8.808;2023-06-22T13:32:49;30.80;99.90
6954;DHT22;3516;47.980;8.808;2023-06-22T13:35:16;30.80;99.90
6954;DHT22;3516;47.980;8.808;2023-06-22T13:37:43;30.80;99.90
6954;DHT22;3516;47.980;8.808;2023-06-22T13:40:11;30.70;99.90
6954;DHT22;3516;47.980;8.808;2023-06-22T13:42:38;30.70;99.90
6954;DHT22;3516;47.980;8.808;2023-06-22T13:45:06;30.60;99.90
6954;DHT22;3516;47.980;8.808;2023-06-22T13:47:33;30.70;99.90
6954;DHT22;3516;47.980;8.808;2023-06-22T13:49:59;30.80;99.90
6954;DHT22;3516;47.980;8.808;2023-06-22T13:52:26;30.80;99.90
6954;DHT22;3516;47.980;8.808;2023-06-22T13:54:53;30.80;99.90
6954;DHT22;3516;47.980;8.808;2023-06-22T13:57:21;30.70;99.90
6954;DHT22;3516;47.980;8.808;2023-06-22T13:59:48;30.60;99.90
6954;DHT22;3516;47.980;8.808;2023-06-22T14:02:14;30.60;99.90
6954;DHT22;3516;47.980;8.808;2023-06-22T14:04:41;30.70;99.90
6954;DHT22;3516;47.980;8.808;2023-06-22T14:07:08;30.70;99.90
6954;DHT22;3516;47.980;8.808;2023-06-22T14:09:35;30.50;99.90
6954;DHT22;3516;47.980;8.808;2023-06-22T14:12:05;30.40;99.90
6954;DHT22;3516;47.980;8.808;2023-06-22T14:14:33;30.30;99.90
6954;DHT22;3516;47.980;8.808;2023-06-22T14:17:00;30.20;99.90
6954;DHT22;3516;47.980;8.808;2023-06-22T14:19:27;30.10;99.90
6954;DHT22;3516;47.980;8.808;2023-06-22T14:21:53;29.40;99.90
6954;DHT22;3516;47.980;8.808;2023-06-22T14:24:20;28.30;99.90
6954;DHT22;3516;47.980;8.808;2023-06-22T14:26:46;27.60;99.90
6954;DHT22;3516;47.980;8.808;2023-06-22T14:29:13;27.30;99.90
6954;DHT22;3516;47.980;8.808;2023-06-22T14:31:45;26.90;99.90
6954;DHT22;3516;47.980;8.808;2023-06-22T14:34:12;26.80;99.90
6954;DHT22;3516;47.980;8.808;2023-06-22T14:36:39;26.70;99.90
6954;DHT22;3516;47.980;8.808;2023-06-22T14:39:05;26.70;99.90
6954;DHT22;3516;47.980;8.808;2023-06-22T14:41:32;26.50;99.90
6954;DHT22;3516;47.980;8.808;2023-06-22T14:43:59;26.60;99.90
6954;DHT22;3516;47.980;8.808;2023-06-22T14:46:27;26.70;99.90
6954;DHT22;3516;47.980;8.808;2023-06-22T14:48:55;26.80;99.90
6954;DHT22;3516;47.980;8.808;2023-06-22T14:51:22;26.90;99.90
6954;DHT22;3516;47.980;8.808;2023-06-22T14:53:48;26.90;99.90
6954;DHT22;3516;47.980;8.808;2023-06-22T14:56:15;26.80;99.90
6954;DHT22;3516;47.980;8.808;2023-06-22T14:58:43;26.70;99.90
6954;DHT22;3516;47.980;8.808;2023-06-22T15:01:11;26.50;99.90
6954;DHT22;3516;47.980;8.808;2023-06-22T15:03:38;26.30;99.90
6954;DHT22;3516;47.980;8.808;2023-06-22T15:06:06;26.10;99.90
6954;DHT22;3516;47.980;8.808;2023-06-22T15:08:33;26.00;99.90
6954;DHT22;3516;47.980;8.808;2023-06-22T15:11:00;25.80;99.90
6954;DHT22;3516;47.980;8.808;2023-06-22T15:13:28;25.60;99.90
6954;DHT22;3516;47.980;8.808;2023-06-22T15:15:55;25.40;99.90
6954;DHT22;3516;47.980;8.808;2023-06-22T15:18:22;25.20;99.90
6954;DHT22;3516;47.980;8.808;2023-06-22T15:20:48;25.00;99.90
6954;DHT22;3516;47.980;8.808;2023-06-22T15:23:17;24.80;99.90
6954;DHT22;3516;47.980;8.808;2023-06-22T15:25:43;24.60;99.90
6954;DHT22;3516;47.980;8.808;2023-06-22T15:28:11;24.50;99.90
6954;DHT22;3516;47.980;8.808;2023-06-22T15:30:38;24.40;99.90
6954;DHT22;3516;47.980;8.808;2023-06-22T15:33:05;24.30;99.90
6954;DHT22;3516;47.980;8.808;2023-06-22T15:35:32;24.20;99.90
6954;DHT22;3516;47.980;8.808;2023-06-22T15:37:58;24.20;99.90
6954;DHT22;3516;47.980;8.808;2023-06-22T15:40:28;24.20;99.90
6954;DHT22;3516;47.980;8.808;2023-06-22T15:42:55;24.30;99.90
6954;DHT22;3516;47.980;8.808;2023-06-22T15:45:22;24.50;99.90
6954;DHT22;3516;47.980;8.808;2023-06-22T15:47:48;24.90;99.90
6954;DHT22;3516;47.980;8.808;2023-06-22T15:50:15;25.10;99.90
6954;DHT22;3516;47.980;8.808;2023-06-22T15:52:42;25.50;99.90
6954;DHT22;3516;47.980;8.808;2023-06-22T15:55:13;25.70;99.90
6954;DHT22;3516;47.980;8.808;2023-06-22T15:57:41;25.70;99.90
6954;DHT22;3516;47.980;8.808;2023-06-22T16:00:13;25.70;99.90
6954;DHT22;3516;47.980;8.808;2023-06-22T16:02:40;25.70;99.90
6954;DHT22;3516;47.980;8.808;2023-06-22T16:05:07;25.60;99.90
6954;DHT22;3516;47.980;8.808;2023-06-22T16:07:34;25.50;99.90
6954;DHT22;3516;47.980;8.808;2023-06-22T16:10:01;25.40;99.90
6954;DHT22;3516;47.980;8.808;2023-06-22T16:12:28;25.40;99.90
6954;DHT22;3516;47.980;8.808;2023-06-22T16:14:56;25.30;99.90
6954;DHT22;3516;47.980;8.808;2023-06-22T16:17:23;25.20;99.90
6954;DHT22;3516;47.980;8.808;2023-06-22T16:19:52;25.10;99.90
6954;DHT22;3516;47.980;8.808;2023-06-22T16:22:20;25.00;99.90
6954;DHT22;3516;47.980;8.808;2023-06-22T16:24:47;24.90;99.90
6954;DHT22;3516;47.980;8.808;2023-06-22T16:27:13;24.80;99.90
6954;DHT22;3516;47.980;8.808;2023-06-22T16:29:40;24.80;99.90
6954;DHT22;3516;47.980;8.808;2023-06-22T16:32:08;24.70;99.90
6954;DHT22;3516;47.980;8.808;2023-06-22T16:34:35;24.70;99.90
6954;DHT22;3516;47.980;8.808;2023-06-22T16:37:02;24.60;99.90
6954;DHT22;3516;47.980;8.808;2023-06-22T16:39:29;24.60;99.90
6954;DHT22;3516;47.980;8.808;2023-06-22T16:41:55;24.70;99.90
6954;DHT22;3516;47.980;8.808;2023-06-22T16:44:22;24.60;99.90
6954;DHT22;3516;47.980;8.808;2023-06-22T16:46:49;24.60;99.90
6954;DHT22;3516;47.980;8.808;2023-06-22T16:49:18;24.70;99.90
6954;DHT22;3516;47.980;8.808;2023-06-22T16:51:44;24.70;99.90
6954;DHT22;3516;47.980;8.808;2023-06-22T16:54:12;24.50;99.90
6954;DHT22;3516;47.980;8.808;2023-06-22T16:56:39;24.50;99.90
6954;DHT22;3516;47.980;8.808;2023-06-22T16:59:05;24.30;99.90
6954;DHT22;3516;47.980;8.808;2023-06-22T17:01:33;24.20;99.90
6954;DHT22;3516;47.980;8.808;2023-06-22T17:04:04;24.10;99.90
6954;DHT22;3516;47.980;8.808;2023-06-22T17:06:32;24.00;99.90
6954;DHT22;3516;47.980;8.808;2023-06-22T17:08:59;23.90;99.90
6954;DHT22;3516;47.980;8.808;2023-06-22T17:11:28;23.80;99.90
6954;DHT22;3516;47.980;8.808;2023-06-22T17:13:56;23.70;99.90
6954;DHT22;3516;47.980;8.808;2023-06-22T17:16:24;23.70;99.90
6954;DHT22;3516;47.980;8.808;2023-06-22T17:18:52;23.60;99.90
6954;DHT22;3516;47.980;8.808;2023-06-22T17:21:22;23.50;99.90
6954;DHT22;3516;47.980;8.808;2023-06-22T17:23:51;23.30;99.90
6954;DHT22;3516;47.980;8.808;2023-06-22T17:26:19;23.20;99.90
6954;DHT22;3516;47.980;8.808;2023-06-22T17:28:48;22.90;99.90
6954;DHT22;3516;47.980;8.808;2023-06-22T17:31:15;22.70;99.90
6954;DHT22;3516;47.980;8.808;2023-06-22T17:33:42;22.30;99.90
6954;DHT22;3516;47.980;8.808;2023-06-22T17:36:12;22.00;99.90
6954;DHT22;3516;47.980;8.808;2023-06-22T17:38:40;21.80;99.90
6954;DHT22;3516;47.980;8.808;2023-06-22T17:41:08;21.40;99.90
6954;DHT22;3516;47.980;8.808;2023-06-22T17:43:45;21.20;99.90
6954;DHT22;3516;47.980;8.808;2023-06-22T17:46:12;21.00;99.90
6954;DHT22;3516;47.980;8.808;2023-06-22T17:48:43;20.80;99.90
6954;DHT22;3516;47.980;8.808;2023-06-22T17:51:12;20.70;99.90
6954;DHT22;3516;47.980;8.808;2023-06-22T17:53:39;20.70;99.90
6954;DHT22;3516;47.980;8.808;2023-06-22T17:56:05;20.60;99.90
6954;DHT22;3516;47.980;8.808;2023-06-22T17:58:33;20.50;99.90
6954;DHT22;3516;47.980;8.808;2023-06-22T18:01:00;20.40;99.90
6954;DHT22;3516;47.980;8.808;2023-06-22T18:03:27;20.40;99.90
6954;DHT22;3516;47.980;8.808;2023-06-22T18:05:54;20.40;99.90
6954;DHT22;3516;47.980;8.808;2023-06-22T18:08:25;20.30;99.90
6954;DHT22;3516;47.980;8.808;2023-06-22T18:10:56;20.20;99.90
6954;DHT22;3516;47.980;8.808;2023-06-22T18:13:24;20.10;99.90
6954;DHT22;3516;47.980;8.808;2023-06-22T18:15:52;20.10;99.90
6954;DHT22;3516;47.980;8.808;2023-06-22T18:18:21;20.00;99.90
6954;DHT22;3516;47.980;8.808;2023-06-22T18:20:50;19.90;99.90
6954;DHT22;3516;47.980;8.808;2023-06-22T18:23:18;19.80;99.90
6954;DHT22;3516;47.980;8.808;2023-06-22T18:25:45;19.70;99.90
6954;DHT22;3516;47.980;8.808;2023-06-22T18:28:14;19.60;99.90
6954;DHT22;3516;47.980;8.808;2023-06-22T18:30:42;19.70;99.90
6954;DHT22;3516;47.980;8.808;2023-06-22T18:33:10;19.60;99.90
6954;DHT22;3516;47.980;8.808;2023-06-22T18:35:38;19.50;99.90
6954;DHT22;3516;47.980;8.808;2023-06-22T18:38:05;19.50;99.90
6954;DHT22;3516;47.980;8.808;2023-06-22T18:40:34;19.50;99.90
6954;DHT22;3516;47.980;8.808;2023-06-22T18:43:01;19.60;99.90
6954;DHT22;3516;47.980;8.808;2023-06-22T18:45:29;19.60;99.90
6954;DHT22;3516;47.980;8.808;2023-06-22T18:48:02;19.60;99.90
6954;DHT22;3516;47.980;8.808;2023-06-22T18:50:40;19.60;99.90
6954;DHT22;3516;47.980;8.808;2023-06-22T18:53:11;19.50;99.90
6954;DHT22;3516;47.980;8.808;2023-06-22T18:55:41;19.50;99.90
6954;DHT22;3516;47.980;8.808;2023-06-22T18:58:16;19.40;99.90
6954;DHT22;3516;47.980;8.808;2023-06-22T19:00:44;19.40;99.90
6954;DHT22;3516;47.980;8.808;2023-06-22T19:03:28;19.30;99.90
6954;DHT22;3516;47.980;8.808;2023-06-22T19:05:58;19.30;99.90
6954;DHT22;3516;47.980;8.808;2023-06-22T19:08:25;19.20;99.90
6954;DHT22;3516;47.980;8.808;2023-06-22T19:10:52;19.10;99.90
6954;DHT22;3516;47.980;8.808;2023-06-22T19:13:29;19.10;99.90
6954;DHT22;3516;47.980;8.808;2023-06-22T19:15:59;19.10;99.90
6954;DHT22;3516;47.980;8.808;2023-06-22T19:18:32;19.10;99.90
6954;DHT22;3516;47.980;8.808;2023-06-22T19:21:01;19.10;99.90
6954;DHT22;3516;47.980;8.808;2023-06-22T19:23:29;19.00;99.90
6954;DHT22;3516;47.980;8.808;2023-06-22T19:25:58;18.90;99.90
6954;DHT22;3516;47.980;8.808;2023-06-22T19:28:26;18.80;99.90
6954;DHT22;3516;47.980;8.808;2023-06-22T19:30:54;18.70;99.90
6954;DHT22;3516;47.980;8.808;2023-06-22T19:33:22;18.60;99.90
6954;DHT22;3516;47.980;8.808;2023-06-22T19:35:51;18.50;99.90
6954;DHT22;3516;47.980;8.808;2023-06-22T19:38:19;18.40;99.90
6954;DHT22;3516;47.980;8.808;2023-06-22T19:40:46;18.30;99.90
6954;DHT22;3516;47.980;8.808;2023-06-22T19:43:13;18.30;99.90
6954;DHT22;3516;47.980;8.808;2023-06-22T19:45:41;18.30;99.90
6954;DHT22;3516;47.980;8.808;2023-06-22T19:48:09;18.30;99.90
6954;DHT22;3516;47.980;8.808;2023-06-22T19:50:36;18.30;99.90
6954;DHT22;3516;47.980;8.808;2023-06-22T19:53:07;18.30;99.90
6954;DHT22;3516;47.980;8.808;2023-06-22T19:55:38;18.30;99.90
6954;DHT22;3516;47.980;8.808;2023-06-22T19:58:06;18.40;99.90
6954;DHT22;3516;47.980;8.808;2023-06-22T20:00:32;18.40;99.90
6954;DHT22;3516;47.980;8.808;2023-06-22T20:03:00;18.40;99.90
6954;DHT22;3516;47.980;8.808;2023-06-22T20:05:27;18.30;99.90
6954;DHT22;3516;47.980;8.808;2023-06-22T20:07:54;18.30;99.90
6954;DHT22;3516;47.980;8.808;2023-06-22T20:10:21;18.30;99.90
6954;DHT22;3516;47.980;8.808;2023-06-22T20:12:52;18.20;99.90
6954;DHT22;3516;47.980;8.808;2023-06-22T20:15:20;18.10;99.90
6954;DHT22;3516;47.980;8.808;2023-06-22T20:17:54;18.00;99.90
6954;DHT22;3516;47.980;8.808;2023-06-22T20:20:22;18.00;99.90
6954;DHT22;3516;47.980;8.808;2023-06-22T20:22:49;18.00;99.90
6954;DHT22;3516;47.980;8.808;2023-06-22T20:25:20;17.90;99.90
6954;DHT22;3516;47.980;8.808;2023-06-22T20:27:47;17.80;99.90
6954;DHT22;3516;47.980;8.808;2023-06-22T20:30:16;17.80;99.90
6954;DHT22;3516;47.980;8.808;2023-06-22T20:32:47;17.70;99.90
6954;DHT22;3516;47.980;8.808;2023-06-22T20:35:14;17.60;99.90
6954;DHT22;3516;47.980;8.808;2023-06-22T20:37:41;17.50;99.90
6954;DHT22;3516;47.980;8.808;2023-06-22T20:40:08;17.40;99.90
6954;DHT22;3516;47.980;8.808;2023-06-22T20:42:36;17.30;99.90
6954;DHT22;3516;47.980;8.808;2023-06-22T20:45:03;17.20;99.90
6954;DHT22;3516;47.980;8.808;2023-06-22T20:47:31;17.20;99.90
6954;DHT22;3516;47.980;8.808;2023-06-22T20:49:58;17.10;99.90
6954;DHT22;3516;47.980;8.808;2023-06-22T20:52:25;17.10;99.90
6954;DHT22;3516;47.980;8.808;2023-06-22T20:54:52;17.10;99.90
6954;DHT22;3516;47.980;8.808;2023-06-22T20:57:19;17.00;99.90
6954;DHT22;3516;47.980;8.808;2023-06-22T20:59:46;17.00;99.90
6954;DHT22;3516;47.980;8.808;2023-06-22T21:02:13;17.00;99.90
6954;DHT22;3516;47.980;8.808;2023-06-22T21:04:42;17.00;99.90
6954;DHT22;3516;47.980;8.808;2023-06-22T21:07:09;17.10;99.90
6954;DHT22;3516;47.980;8.808;2023-06-22T21:09:36;17.10;99.90
6954;DHT22;3516;47.980;8.808;2023-06-22T21:12:03;17.10;99.90
6954;DHT22;3516;47.980;8.808;2023-06-22T21:14:30;17.20;99.90
6954;DHT22;3516;47.980;8.808;2023-06-22T21:16:57;17.20;99.90
6954;DHT22;3516;47.980;8.808;2023-06-22T21:19:23;17.20;99.90
6954;DHT22;3516;47.980;8.808;2023-06-22T21:21:51;17.20;99.90
6954;DHT22;3516;47.980;8.808;2023-06-22T21:24:18;17.20;99.90
6954;DHT22;3516;47.980;8.808;2023-06-22T21:26:45;17.30;99.90
6954;DHT22;3516;47.980;8.808;2023-06-22T21:29:12;17.30;99.90
6954;DHT22;3516;47.980;8.808;2023-06-22T21:31:38;17.30;99.90
6954;DHT22;3516;47.980;8.808;2023-06-22T21:34:05;17.30;99.90
6954;DHT22;3516;47.980;8.808;2023-06-22T21:36:32;17.30;99.90
6954;DHT22;3516;47.980;8.808;2023-06-22T21:39:01;17.40;99.90
6954;DHT22;3516;47.980;8.808;2023-06-22T21:41:28;17.40;99.90
6954;DHT22;3516;47.980;8.808;2023-06-22T21:43:54;17.40;99.90
6954;DHT22;3516;47.980;8.808;2023-06-22T21:46:21;17.40;99.90
6954;DHT22;3516;47.980;8.808;2023-06-22T21:48:48;17.50;99.90
6954;DHT22;3516;47.980;8.808;2023-06-22T21:51:15;17.50;99.90
